Time;durP1;ratioP1;P1;durP2;ratioP2;P2;SDS_P1;SDS_P2;PMS_P1;PMS_P2;Temp;Humidity;BMP_temperature;BMP_pressure;BME280_temperature;BME280_humidity;BME280_pressure;Samples;Min_cycle;Max_cycle;Signal;HPM_P1;HPM_P2
2024/03/06 00:00:50;;;;;;;;;;;19.90;52.30;;;;;;1506453;77;1648;-73
2024/03/06 00:02:52;;;;;;;;;;;19.80;52.30;;;;;;1500240;78;702;-75
2024/03/06 00:04:54;;;;;;;;;;;19.90;52.30;;;;;;1505930;78;1931;-74
2024/03/06 00:06:57;;;;;;;;;;;19.90;52.40;;;;;;1508495;78;707;-75
2024/03/06 00:09:00;;;;;;;;;;;19.80;52.30;;;;;;1490350;78;701;-70
2024/03/06 00:11:02;;;;;;;;;;;19.80;52.30;;;;;;1503765;78;1102;-75
2024/03/06 00:13:04;;;;;;;;;;;19.80;52.30;;;;;;1500088;78;731;-73
2024/03/06 00:15:07;;;;;;;;;;;19.80;52.30;;;;;;1503701;78;659;-73
2024/03/06 00:17:09;;;;;;;;;;;19.80;52.30;;;;;;1500476;78;1528;-75
2024/03/06 00:19:11;;;;;;;;;;;19.90;52.50;;;;;;1507187;78;913;-75
2024/03/06 00:21:13;;;;;;;;;;;19.90;52.40;;;;;;1497330;77;1213;-77
2024/03/06 00:23:15;;;;;;;;;;;19.80;52.30;;;;;;1501013;78;715;-76
2024/03/06 00:25:17;;;;;;;;;;;19.80;52.30;;;;;;1511699;78;1929;-75
2024/03/06 00:27:19;;;;;;;;;;;19.80;52.40;;;;;;1503785;78;679;-75
2024/03/06 00:29:21;;;;;;;;;;;19.80;52.40;;;;;;1499942;78;667;-76
2024/03/06 00:31:23;;;;;;;;;;;19.90;52.50;;;;;;1502947;78;1545;-75
2024/03/06 00:33:25;;;;;;;;;;;19.80;52.30;;;;;;1499127;78;649;-77
2024/03/06 00:35:28;;;;;;;;;;;19.80;52.30;;;;;;1501920;78;765;-76
2024/03/06 00:37:30;;;;;;;;;;;19.80;52.40;;;;;;1507432;78;783;-76
2024/03/06 00:39:32;;;;;;;;;;;19.90;52.50;;;;;;1502173;78;720;-76
2024/03/06 00:41:36;;;;;;;;;;;19.80;52.40;;;;;;1505079;78;1155;-75
2024/03/06 00:43:37;;;;;;;;;;;19.80;52.40;;;;;;1492915;78;1099;-74
2024/03/06 00:45:39;;;;;;;;;;;19.80;52.40;;;;;;1506210;78;1938;-76
2024/03/06 00:47:41;;;;;;;;;;;19.80;52.40;;;;;;1501023;78;716;-75
2024/03/06 00:49:43;;;;;;;;;;;19.80;52.40;;;;;;1503288;78;751;-75
2024/03/06 00:51:45;;;;;;;;;;;19.80;52.40;;;;;;1504022;78;1129;-76
2024/03/06 00:53:47;;;;;;;;;;;19.80;52.50;;;;;;1507250;78;718;-74
2024/03/06 00:55:49;;;;;;;;;;;19.80;52.50;;;;;;1506248;78;734;-74
2024/03/06 00:57:51;;;;;;;;;;;19.80;52.50;;;;;;1504019;78;720;-76
2024/03/06 00:59:52;;;;;;;;;;;19.80;52.40;;;;;;1499977;78;1355;-75
2024/03/06 01:01:57;;;;;;;;;;;19.80;52.40;;;;;;1504130;77;1138;-75
2024/03/06 01:03:59;;;;;;;;;;;19.80;52.50;;;;;;1495521;78;752;-75
2024/03/06 01:06:01;;;;;;;;;;;19.80;52.50;;;;;;1505420;78;1950;-75
2024/03/06 01:08:03;;;;;;;;;;;19.90;52.60;;;;;;1506090;78;913;-75
2024/03/06 01:10:10;;;;;;;;;;;19.80;52.50;;;;;;1503858;77;755;-74
2024/03/06 01:12:09;;;;;;;;;;;19.80;52.50;;;;;;1504749;78;1135;-74
2024/03/06 01:14:11;;;;;;;;;;;19.80;52.50;;;;;;1503620;78;1339;-76
2024/03/06 01:16:12;;;;;;;;;;;19.80;52.50;;;;;;1505259;78;829;-75
2024/03/06 01:18:14;;;;;;;;;;;19.90;52.60;;;;;;1494611;78;757;-76
2024/03/06 01:20:16;;;;;;;;;;;19.80;52.60;;;;;;1501076;78;701;-75
2024/03/06 01:22:18;;;;;;;;;;;19.90;52.60;;;;;;1502171;78;1129;-75
2024/03/06 01:24:20;;;;;;;;;;;19.80;52.60;;;;;;1510604;78;627;-76
2024/03/06 01:26:22;;;;;;;;;;;19.80;52.50;;;;;;1502944;78;1944;-73
2024/03/06 01:28:24;;;;;;;;;;;19.80;52.60;;;;;;1509245;78;1287;-74
2024/03/06 01:30:26;;;;;;;;;;;19.80;52.60;;;;;;1498688;78;772;-75
2024/03/06 01:32:27;;;;;;;;;;;19.80;52.60;;;;;;1499861;78;1172;-72
2024/03/06 01:34:29;;;;;;;;;;;19.80;52.60;;;;;;1505808;78;707;-76
2024/03/06 01:36:33;;;;;;;;;;;19.80;52.60;;;;;;1502164;78;889;-76
2024/03/06 01:38:34;;;;;;;;;;;19.90;52.70;;;;;;1499082;78;804;-75
2024/03/06 01:40:36;;;;;;;;;;;19.90;52.70;;;;;;1501939;78;537;-75
2024/03/06 01:42:38;;;;;;;;;;;19.90;52.70;;;;;;1503158;78;1576;-74
2024/03/06 01:44:40;;;;;;;;;;;19.80;52.60;;;;;;1497223;78;715;-75
2024/03/06 01:46:43;;;;;;;;;;;19.80;52.70;;;;;;1498362;78;1912;-74
2024/03/06 01:48:45;;;;;;;;;;;19.80;52.60;;;;;;1504555;78;727;-75
2024/03/06 01:50:46;;;;;;;;;;;19.80;52.70;;;;;;1503434;78;739;-75
2024/03/06 01:52:50;;;;;;;;;;;19.80;52.70;;;;;;1507186;78;1160;-74
2024/03/06 01:54:52;;;;;;;;;;;19.80;52.70;;;;;;1509509;78;775;-71
2024/03/06 01:56:54;;;;;;;;;;;19.80;52.70;;;;;;1501729;78;1532;-74
2024/03/06 01:58:56;;;;;;;;;;;19.80;52.60;;;;;;1511150;78;744;-75
2024/03/06 02:00:58;;;;;;;;;;;19.80;52.60;;;;;;1506017;78;1092;-73
2024/03/06 02:03:00;;;;;;;;;;;19.90;52.80;;;;;;1496548;78;992;-75
2024/03/06 02:05:02;;;;;;;;;;;19.90;52.80;;;;;;1498534;78;745;-74
2024/03/06 02:07:04;;;;;;;;;;;19.80;52.70;;;;;;1502551;77;1913;-75
2024/03/06 02:09:10;;;;;;;;;;;19.80;52.70;;;;;;1493519;78;681;-74
2024/03/06 02:11:09;;;;;;;;;;;19.80;52.70;;;;;;1503158;78;1438;-75
2024/03/06 02:13:12;;;;;;;;;;;19.80;52.70;;;;;;1512657;78;884;-74
2024/03/06 02:15:14;;;;;;;;;;;19.80;52.70;;;;;;1500252;78;633;-74
2024/03/06 02:17:16;;;;;;;;;;;19.80;52.70;;;;;;1496802;78;709;-76
2024/03/06 02:19:18;;;;;;;;;;;19.80;52.70;;;;;;1500221;78;546;-74
2024/03/06 02:21:21;;;;;;;;;;;19.80;52.70;;;;;;1508073;77;1113;-72
2024/03/06 02:23:23;;;;;;;;;;;19.80;52.70;;;;;;1498017;78;584;-74
2024/03/06 02:25:25;;;;;;;;;;;19.80;52.80;;;;;;1507160;78;1532;-74
2024/03/06 02:27:27;;;;;;;;;;;19.90;52.90;;;;;;1510116;78;1937;-73
2024/03/06 02:29:29;;;;;;;;;;;19.90;52.80;;;;;;1499490;78;786;-74
2024/03/06 02:31:30;;;;;;;;;;;19.80;52.80;;;;;;1495099;78;1161;-74
2024/03/06 02:33:34;;;;;;;;;;;19.90;52.90;;;;;;1502295;78;661;-75
2024/03/06 02:35:36;;;;;;;;;;;19.80;52.80;;;;;;1499692;78;813;-74
2024/03/06 02:37:38;;;;;;;;;;;19.80;52.80;;;;;;1494155;78;1365;-74
2024/03/06 02:39:40;;;;;;;;;;;19.80;52.80;;;;;;1499804;78;681;-76
2024/03/06 02:41:42;;;;;;;;;;;19.80;52.80;;;;;;1503534;78;1148;-70
2024/03/06 02:43:44;;;;;;;;;;;19.90;52.90;;;;;;1505635;78;665;-74
2024/03/06 02:45:46;;;;;;;;;;;19.80;53.00;;;;;;1501302;78;1920;-75
2024/03/06 02:47:48;;;;;;;;;;;19.80;52.90;;;;;;1497694;78;668;-73
2024/03/06 02:49:50;;;;;;;;;;;19.80;52.90;;;;;;1499906;78;771;-73
2024/03/06 02:51:51;;;;;;;;;;;19.90;53.00;;;;;;1500233;78;1587;-69
2024/03/06 02:53:53;;;;;;;;;;;19.90;53.00;;;;;;1505801;78;748;-73
2024/03/06 02:55:55;;;;;;;;;;;19.80;52.90;;;;;;1505651;78;780;-75
2024/03/06 02:57:57;;;;;;;;;;;19.80;53.00;;;;;;1504460;78;700;-76
2024/03/06 02:59:59;;;;;;;;;;;19.80;52.90;;;;;;1491840;78;686;-73
2024/03/06 03:02:03;;;;;;;;;;;19.90;53.00;;;;;;1500602;78;1141;-74
2024/03/06 03:04:07;;;;;;;;;;;19.80;52.90;;;;;;1498226;77;753;-74
2024/03/06 03:06:08;;;;;;;;;;;19.80;53.00;;;;;;1499838;78;1981;-74
2024/03/06 03:08:10;;;;;;;;;;;19.80;53.00;;;;;;1512204;78;600;-75
2024/03/06 03:10:13;;;;;;;;;;;19.80;52.90;;;;;;1504117;78;701;-73
2024/03/06 03:12:15;;;;;;;;;;;19.80;53.00;;;;;;1501406;78;1133;-76
2024/03/06 03:14:17;;;;;;;;;;;19.90;53.20;;;;;;1501842;78;701;-75
2024/03/06 03:16:20;;;;;;;;;;;19.90;53.10;;;;;;1500858;78;744;-74
2024/03/06 03:18:22;;;;;;;;;;;19.80;53.00;;;;;;1504872;77;765;-74
2024/03/06 03:20:23;;;;;;;;;;;19.80;53.10;;;;;;1506486;78;1805;-71
2024/03/06 03:22:25;;;;;;;;;;;19.80;53.10;;;;;;1496388;78;1095;-74
2024/03/06 03:24:27;;;;;;;;;;;19.80;53.00;;;;;;1507098;78;742;-74
2024/03/06 03:26:29;;;;;;;;;;;19.90;53.10;;;;;;1509312;78;1946;-73
2024/03/06 03:28:32;;;;;;;;;;;19.80;53.10;;;;;;1505978;78;729;-72
2024/03/06 03:30:34;;;;;;;;;;;19.80;53.10;;;;;;1504821;78;726;-73
2024/03/06 03:32:36;;;;;;;;;;;19.80;53.10;;;;;;1509910;77;1124;-72
2024/03/06 03:34:38;;;;;;;;;;;19.80;53.10;;;;;;1501216;78;1545;-72
2024/03/06 03:36:41;;;;;;;;;;;19.90;53.20;;;;;;1506103;78;972;-73
2024/03/06 03:38:43;;;;;;;;;;;19.90;53.20;;;;;;1502116;78;687;-72
2024/03/06 03:40:45;;;;;;;;;;;19.80;53.20;;;;;;1498188;78;743;-73
2024/03/06 03:42:47;;;;;;;;;;;19.80;53.10;;;;;;1510905;78;1070;-72
2024/03/06 03:44:49;;;;;;;;;;;19.80;53.20;;;;;;1505104;78;614;-73
2024/03/06 03:46:51;;;;;;;;;;;19.80;53.10;;;;;;1509314;78;1940;-74
2024/03/06 03:48:53;;;;;;;;;;;19.80;53.30;;;;;;1503684;78;1570;-74
2024/03/06 03:50:55;;;;;;;;;;;19.90;53.30;;;;;;1505221;78;1144;-75
2024/03/06 03:52:57;;;;;;;;;;;19.80;53.20;;;;;;1508362;78;692;-74
2024/03/06 03:54:59;;;;;;;;;;;19.90;53.30;;;;;;1505391;78;723;-69
2024/03/06 03:57:01;;;;;;;;;;;19.90;53.30;;;;;;1507885;78;589;-74
2024/03/06 03:59:03;;;;;;;;;;;19.90;53.30;;;;;;1506652;78;657;-69
2024/03/06 04:01:05;;;;;;;;;;;19.90;53.20;;;;;;1508072;78;1149;-73
2024/03/06 04:03:07;;;;;;;;;;;19.90;53.30;;;;;;1507381;78;1533;-74
2024/03/06 04:05:09;;;;;;;;;;;19.80;53.20;;;;;;1494956;78;657;-74
2024/03/06 04:07:11;;;;;;;;;;;19.80;53.20;;;;;;1494080;78;1921;-75
2024/03/06 04:09:14;;;;;;;;;;;19.80;53.30;;;;;;1498543;78;715;-73
2024/03/06 04:11:16;;;;;;;;;;;19.90;53.40;;;;;;1504735;78;1138;-74
2024/03/06 04:13:20;;;;;;;;;;;19.80;53.30;;;;;;1508436;78;677;-72
2024/03/06 04:15:22;;;;;;;;;;;19.80;53.40;;;;;;1506456;78;729;-72
2024/03/06 04:17:25;;;;;;;;;;;19.80;53.50;;;;;;1506126;78;1647;-74
2024/03/06 04:19:27;;;;;;;;;;;19.80;53.50;;;;;;1506416;78;827;-74
2024/03/06 04:21:29;;;;;;;;;;;19.80;53.50;;;;;;1503504;78;1157;-74
2024/03/06 04:23:31;;;;;;;;;;;19.80;53.60;;;;;;1511371;78;624;-73
2024/03/06 04:25:33;;;;;;;;;;;19.90;53.60;;;;;;1503867;78;759;-73
2024/03/06 04:27:35;;;;;;;;;;;19.80;53.60;;;;;;1500015;78;1949;-73
2024/03/06 04:29:36;;;;;;;;;;;19.90;53.70;;;;;;1502684;78;733;-75
2024/03/06 04:31:38;;;;;;;;;;;19.80;53.60;;;;;;1501325;78;1506;-72
2024/03/06 04:33:42;;;;;;;;;;;19.80;53.60;;;;;;1502892;78;753;-72
2024/03/06 04:35:44;;;;;;;;;;;19.80;53.60;;;;;;1510230;78;697;-71
2024/03/06 04:37:46;;;;;;;;;;;19.80;53.60;;;;;;1502359;78;805;-72
2024/03/06 04:39:48;;;;;;;;;;;19.80;53.60;;;;;;1500902;78;779;-70
2024/03/06 04:41:50;;;;;;;;;;;19.80;53.50;;;;;;1509914;78;1150;-71
2024/03/06 04:43:52;;;;;;;;;;;19.80;53.40;;;;;;1500863;78;664;-71
2024/03/06 04:45:54;;;;;;;;;;;19.80;53.50;;;;;;1505684;78;1558;-71
2024/03/06 04:47:56;;;;;;;;;;;19.80;53.40;;;;;;1502909;78;1990;-72
2024/03/06 04:49:58;;;;;;;;;;;19.80;53.40;;;;;;1506448;78;758;-71
2024/03/06 04:52:00;;;;;;;;;;;19.80;53.40;;;;;;1508647;78;1147;-70
2024/03/06 04:54:03;;;;;;;;;;;19.80;53.40;;;;;;1505725;78;758;-70
2024/03/06 04:56:05;;;;;;;;;;;19.80;53.40;;;;;;1507469;78;750;-70
2024/03/06 04:58:07;;;;;;;;;;;19.90;53.40;;;;;;1492517;78;726;-71
2024/03/06 05:00:10;;;;;;;;;;;19.80;53.30;;;;;;1497346;78;1678;-70
2024/03/06 05:02:11;;;;;;;;;;;19.80;53.30;;;;;;1500695;78;1146;-73
2024/03/06 05:04:13;;;;;;;;;;;19.80;53.30;;;;;;1505339;78;797;-74
2024/03/06 05:06:15;;;;;;;;;;;19.80;53.20;;;;;;1509370;78;659;-74
2024/03/06 05:08:17;;;;;;;;;;;19.80;53.30;;;;;;1498041;78;1940;-74
2024/03/06 05:10:19;;;;;;;;;;;19.80;53.20;;;;;;1501982;78;727;-75
2024/03/06 05:12:21;;;;;;;;;;;19.80;53.20;;;;;;1501074;78;1560;-77
2024/03/06 05:14:23;;;;;;;;;;;19.80;53.20;;;;;;1504821;78;740;-78
2024/03/06 05:16:26;;;;;;;;;;;19.80;53.20;;;;;;1500853;78;746;-76
2024/03/06 05:18:28;;;;;;;;;;;19.90;53.20;;;;;;1499253;78;730;-76
2024/03/06 05:20:31;;;;;;;;;;;19.90;53.10;;;;;;1505419;78;735;-77
2024/03/06 05:22:33;;;;;;;;;;;19.90;53.10;;;;;;1503342;78;1091;-74
2024/03/06 05:24:34;;;;;;;;;;;19.80;52.90;;;;;;1508081;78;700;-75
2024/03/06 05:26:36;;;;;;;;;;;19.90;53.10;;;;;;1508192;78;1453;-74
2024/03/06 05:28:39;;;;;;;;;;;19.90;53.10;;;;;;1509470;78;1933;-74
2024/03/06 05:30:41;;;;;;;;;;;19.90;53.10;;;;;;1504003;78;893;-75
2024/03/06 05:32:42;;;;;;;;;;;19.90;53.10;;;;;;1505929;78;1145;-73
2024/03/06 05:34:44;;;;;;;;;;;19.80;52.90;;;;;;1495970;78;790;-76
2024/03/06 05:36:46;;;;;;;;;;;19.90;53.10;;;;;;1504395;78;701;-76
2024/03/06 05:38:49;;;;;;;;;;;19.90;53.00;;;;;;1505588;78;777;-77
2024/03/06 05:40:51;;;;;;;;;;;19.80;53.00;;;;;;1503345;78;1544;-74
2024/03/06 05:42:53;;;;;;;;;;;19.80;53.00;;;;;;1501656;78;680;-75
2024/03/06 05:44:55;;;;;;;;;;;19.90;53.00;;;;;;1496065;78;632;-76
2024/03/06 05:46:57;;;;;;;;;;;19.90;53.10;;;;;;1502293;78;1909;-77
2024/03/06 05:49:01;;;;;;;;;;;19.90;53.10;;;;;;1498444;78;689;-77
2024/03/06 05:51:03;;;;;;;;;;;19.90;53.10;;;;;;1503782;78;1128;-76
2024/03/06 05:53:05;;;;;;;;;;;20.00;53.20;;;;;;1498304;78;742;-75
2024/03/06 05:55:07;;;;;;;;;;;19.90;53.10;;;;;;1496436;78;1640;-76
2024/03/06 05:57:09;;;;;;;;;;;19.80;53.00;;;;;;1501557;79;720;-75
2024/03/06 05:59:11;;;;;;;;;;;19.90;53.10;;;;;;1494211;79;709;-74
2024/03/06 06:01:18;;;;;;;;;;;19.90;53.10;;;;;;1502246;79;1151;-76
2024/03/06 06:03:19;;;;;;;;;;;19.90;53.10;;;;;;1499271;78;1146;-78
2024/03/06 06:05:22;;;;;;;;;;;19.90;53.00;;;;;;1499506;79;777;-76
2024/03/06 06:07:24;;;;;;;;;;;19.90;53.00;;;;;;1510840;77;1908;-78
2024/03/06 06:09:26;;;;;;;;;;;19.90;52.90;;;;;;1495675;78;1601;-76
2024/03/06 06:11:28;;;;;;;;;;;19.80;52.90;;;;;;1503533;78;1089;-76
2024/03/06 06:13:30;;;;;;;;;;;19.90;53.00;;;;;;1496240;79;656;-77
2024/03/06 06:15:32;;;;;;;;;;;19.80;52.80;;;;;;1495684;79;651;-76
2024/03/06 06:17:34;;;;;;;;;;;19.90;52.90;;;;;;1497210;79;822;-76
2024/03/06 06:19:36;;;;;;;;;;;19.90;52.90;;;;;;1496472;79;827;-76
2024/03/06 06:21:38;;;;;;;;;;;19.90;52.90;;;;;;1494589;79;1121;-77
2024/03/06 06:23:40;;;;;;;;;;;19.90;52.80;;;;;;1501272;79;1607;-75
2024/03/06 06:25:42;;;;;;;;;;;19.90;52.80;;;;;;1500339;79;736;-75
2024/03/06 06:27:44;;;;;;;;;;;19.90;52.80;;;;;;1503721;78;1987;-75
2024/03/06 06:29:45;;;;;;;;;;;19.90;52.80;;;;;;1551992;75;768;-75
2024/03/06 06:31:47;;;;;;;;;;;19.90;52.80;;;;;;1553964;75;1131;-75
2024/03/06 06:33:49;;;;;;;;;;;19.90;52.80;;;;;;1551900;75;812;-78
2024/03/06 06:35:51;;;;;;;;;;;19.90;52.70;;;;;;1554706;75;762;-76
2024/03/06 06:37:53;;;;;;;;;;;19.90;52.70;;;;;;1554909;75;1338;-76
2024/03/06 06:39:55;;;;;;;;;;;19.90;52.80;;;;;;1548322;75;674;-74
2024/03/06 06:41:57;;;;;;;;;;;19.90;52.70;;;;;;1552134;74;1224;-75
2024/03/06 06:43:59;;;;;;;;;;;19.90;52.70;;;;;;1548323;75;670;-77
2024/03/06 06:46:01;;;;;;;;;;;19.90;52.70;;;;;;1552188;75;698;-78
2024/03/06 06:48:03;;;;;;;;;;;19.90;52.70;;;;;;1544743;76;1921;-78
2024/03/06 06:50:05;;;;;;;;;;;19.90;52.70;;;;;;1549385;75;737;-76
2024/03/06 06:52:07;;;;;;;;;;;19.90;52.70;;;;;;1541734;75;1493;-77
2024/03/06 06:54:09;;;;;;;;;;;19.90;52.70;;;;;;1568045;75;676;-76
2024/03/06 06:56:11;;;;;;;;;;;19.90;52.60;;;;;;1550146;75;717;-74
2024/03/06 06:58:13;;;;;;;;;;;19.90;52.60;;;;;;1540135;75;664;-75
2024/03/06 07:00:18;;;;;;;;;;;19.90;52.60;;;;;;1543376;76;704;-76
2024/03/06 07:02:19;;;;;;;;;;;19.90;52.60;;;;;;1550489;75;1157;-75
2024/03/06 07:04:22;;;;;;;;;;;19.80;52.50;;;;;;1552496;75;757;-76
2024/03/06 07:06:23;;;;;;;;;;;19.90;52.60;;;;;;1523715;77;1311;-77
2024/03/06 07:08:26;;;;;;;;;;;19.80;52.50;;;;;;1494230;79;1946;-77
2024/03/06 07:10:28;;;;;;;;;;;19.90;52.60;;;;;;1500438;78;696;-76
2024/03/06 07:12:30;;;;;;;;;;;19.90;52.50;;;;;;1493021;79;1107;-76
2024/03/06 07:14:32;;;;;;;;;;;19.90;52.60;;;;;;1496678;79;728;-75
2024/03/06 07:16:34;;;;;;;;;;;19.80;52.40;;;;;;1493920;78;665;-76
2024/03/06 07:18:35;;;;;;;;;;;19.90;52.50;;;;;;1500357;78;535;-77
2024/03/06 07:20:39;;;;;;;;;;;19.90;52.40;;;;;;1495653;79;1582;-80
2024/03/06 07:22:41;;;;;;;;;;;19.90;52.40;;;;;;1495996;79;1126;-76
2024/03/06 07:24:43;;;;;;;;;;;19.90;52.50;;;;;;1498878;79;691;-78
2024/03/06 07:26:45;;;;;;;;;;;19.90;52.50;;;;;;1491200;79;751;-76
2024/03/06 07:28:47;;;;;;;;;;;19.90;52.40;;;;;;1486981;79;1935;-76
2024/03/06 07:30:49;;;;;;;;;;;19.80;52.30;;;;;;1499676;79;828;-76
2024/03/06 07:32:51;;;;;;;;;;;19.80;52.30;;;;;;1491927;79;1133;-76
2024/03/06 07:34:53;;;;;;;;;;;19.80;52.30;;;;;;1491348;79;1675;-76
2024/03/06 07:36:55;;;;;;;;;;;19.80;52.30;;;;;;1494382;79;703;-78
2024/03/06 07:38:56;;;;;;;;;;;19.80;52.30;;;;;;1499739;79;954;-78
2024/03/06 07:40:58;;;;;;;;;;;19.80;52.30;;;;;;1495158;78;1200;-77
2024/03/06 07:43:00;;;;;;;;;;;19.80;52.30;;;;;;1501786;79;696;-76
2024/03/06 07:45:03;;;;;;;;;;;19.80;52.30;;;;;;1496473;79;735;-76
2024/03/06 07:47:05;;;;;;;;;;;19.80;52.20;;;;;;1502000;79;1532;-79
2024/03/06 07:49:07;;;;;;;;;;;19.80;52.20;;;;;;1492020;79;1925;-76
2024/03/06 07:51:09;;;;;;;;;;;19.80;52.20;;;;;;1496535;78;1107;-77
2024/03/06 07:53:11;;;;;;;;;;;19.80;52.20;;;;;;1525045;76;769;-76
2024/03/06 07:55:13;;;;;;;;;;;19.80;52.20;;;;;;1560090;75;749;-75
2024/03/06 07:57:15;;;;;;;;;;;19.80;52.20;;;;;;1554289;75;598;-75
2024/03/06 07:59:18;;;;;;;;;;;19.80;52.20;;;;;;1558374;75;690;-76
2024/03/06 08:01:20;;;;;;;;;;;19.90;52.30;;;;;;1555211;75;1612;-78
2024/03/06 08:03:23;;;;;;;;;;;19.80;52.20;;;;;;1553088;75;745;-78
2024/03/06 08:05:24;;;;;;;;;;;19.90;52.20;;;;;;1555482;75;727;-78
2024/03/06 08:07:26;;;;;;;;;;;19.80;52.10;;;;;;1550555;75;670;-76
2024/03/06 08:09:29;;;;;;;;;;;19.80;52.10;;;;;;1555822;75;1937;-76
2024/03/06 08:11:30;;;;;;;;;;;19.80;52.10;;;;;;1500821;77;1142;-76
2024/03/06 08:13:32;;;;;;;;;;;19.80;52.10;;;;;;1494405;79;705;-76
2024/03/06 08:15:34;;;;;;;;;;;19.80;52.10;;;;;;1494692;79;1615;-77
2024/03/06 08:17:36;;;;;;;;;;;19.80;52.10;;;;;;1488172;79;665;-77
2024/03/06 08:19:38;;;;;;;;;;;19.80;52.10;;;;;;1498815;79;828;-76
2024/03/06 08:21:40;;;;;;;;;;;19.80;52.10;;;;;;1491961;79;1122;-76
2024/03/06 08:23:43;;;;;;;;;;;19.70;52.00;;;;;;1501155;79;696;-76
2024/03/06 08:25:45;;;;;;;;;;;19.80;52.00;;;;;;1493289;79;755;-74
2024/03/06 08:27:47;;;;;;;;;;;19.80;52.00;;;;;;1491147;79;1923;-80
2024/03/06 08:29:49;;;;;;;;;;;19.70;52.00;;;;;;1499208;79;1520;-76
2024/03/06 08:31:50;;;;;;;;;;;19.80;52.00;;;;;;1498802;78;1191;-77
2024/03/06 08:33:52;;;;;;;;;;;19.80;52.00;;;;;;1493066;78;724;-78
2024/03/06 08:35:54;;;;;;;;;;;19.80;52.00;;;;;;1495061;79;666;-75
2024/03/06 08:37:56;;;;;;;;;;;19.70;51.90;;;;;;1558932;75;722;-75
2024/03/06 08:39:59;;;;;;;;;;;19.80;51.90;;;;;;1546769;75;721;-78
2024/03/06 08:42:02;;;;;;;;;;;19.80;51.90;;;;;;1560680;75;1220;-75
2024/03/06 08:44:04;;;;;;;;;;;19.80;51.90;;;;;;1556204;75;1550;-76
2024/03/06 08:46:07;;;;;;;;;;;19.80;51.90;;;;;;1549035;75;747;-79
2024/03/06 08:48:09;;;;;;;;;;;19.80;51.90;;;;;;1484121;78;1910;-76
2024/03/06 08:50:11;;;;;;;;;;;19.80;51.90;;;;;;1497771;77;741;-76
2024/03/06 08:52:13;;;;;;;;;;;19.80;51.90;;;;;;1498980;79;1131;-76
2024/03/06 08:54:15;;;;;;;;;;;19.80;51.90;;;;;;1500841;79;644;-76
2024/03/06 08:56:18;;;;;;;;;;;19.80;51.90;;;;;;1499186;79;763;-76
2024/03/06 08:58:21;;;;;;;;;;;19.80;51.90;;;;;;1490678;79;1322;-74
2024/03/06 09:00:23;;;;;;;;;;;19.80;51.90;;;;;;1507653;78;725;-77
2024/03/06 09:02:25;;;;;;;;;;;19.80;51.90;;;;;;1500157;78;1203;-80
2024/03/06 09:04:27;;;;;;;;;;;19.80;52.00;;;;;;1495443;79;754;-76
2024/03/06 09:06:29;;;;;;;;;;;19.80;51.90;;;;;;1502060;79;870;-78
2024/03/06 09:08:30;;;;;;;;;;;19.70;51.90;;;;;;1494472;78;1939;-78
2024/03/06 09:10:33;;;;;;;;;;;19.80;51.90;;;;;;1501516;79;727;-76
2024/03/06 09:12:35;;;;;;;;;;;19.80;51.90;;;;;;1498119;78;1618;-75
2024/03/06 09:14:37;;;;;;;;;;;19.80;51.90;;;;;;1501049;78;780;-75
2024/03/06 09:16:39;;;;;;;;;;;19.80;51.90;;;;;;1497843;78;727;-76
2024/03/06 09:18:41;;;;;;;;;;;19.80;51.90;;;;;;1487774;79;890;-77
2024/03/06 09:20:43;;;;;;;;;;;19.80;51.90;;;;;;1489192;79;750;-76
2024/03/06 09:22:45;;;;;;;;;;;19.80;51.90;;;;;;1498769;79;1113;-76
2024/03/06 09:24:48;;;;;;;;;;;19.80;51.90;;;;;;1495430;79;731;-76
2024/03/06 09:26:50;;;;;;;;;;;19.80;51.90;;;;;;1494990;79;1591;-75
2024/03/06 09:28:52;;;;;;;;;;;19.80;51.90;;;;;;1497535;79;1912;-74
2024/03/06 09:30:54;;;;;;;;;;;19.80;51.90;;;;;;1499382;78;731;-75
2024/03/06 09:32:55;;;;;;;;;;;19.80;51.90;;;;;;1483922;79;707;-76
2024/03/06 09:34:58;;;;;;;;;;;19.80;51.80;;;;;;1503184;78;784;-76
2024/03/06 09:37:00;;;;;;;;;;;19.70;51.80;;;;;;1492249;79;618;-77
2024/03/06 09:39:04;;;;;;;;;;;19.80;51.80;;;;;;1490162;79;747;-76
2024/03/06 09:41:07;;;;;;;;;;;19.80;51.80;;;;;;1492333;79;1553;-74
2024/03/06 09:43:08;;;;;;;;;;;19.80;51.90;;;;;;1491482;79;667;-74
2024/03/06 09:45:10;;;;;;;;;;;19.80;51.80;;;;;;1557356;74;718;-76
2024/03/06 09:47:15;;;;;;;;;;;19.80;51.90;;;;;;1544473;75;683;-76
2024/03/06 09:49:18;;;;;;;;;;;19.80;51.80;;;;;;1546781;75;1913;-75
2024/03/06 09:51:20;;;;;;;;;;;19.90;51.90;;;;;;1555542;75;1146;-77
2024/03/06 09:53:22;;;;;;;;;;;19.80;51.80;;;;;;1548713;75;678;-77
2024/03/06 09:55:25;;;;;;;;;;;19.80;51.80;;;;;;1503161;78;1451;-78
2024/03/06 09:57:27;;;;;;;;;;;19.80;51.80;;;;;;1486941;79;619;-77
2024/03/06 09:59:29;;;;;;;;;;;19.80;51.80;;;;;;1559814;74;568;-75
2024/03/06 10:01:32;;;;;;;;;;;19.80;51.80;;;;;;1521843;76;1218;-76
2024/03/06 10:03:34;;;;;;;;;;;19.80;51.80;;;;;;1549294;76;734;-76
2024/03/06 10:05:36;;;;;;;;;;;19.80;51.80;;;;;;1545608;75;697;-76
2024/03/06 10:07:38;;;;;;;;;;;19.80;51.80;;;;;;1536399;74;1373;-77
2024/03/06 10:09:40;;;;;;;;;;;19.90;51.80;;;;;;1562805;75;1952;-77
2024/03/06 10:11:42;;;;;;;;;;;19.80;51.80;;;;;;1547281;74;1138;-76
2024/03/06 10:13:44;;;;;;;;;;;19.80;51.70;;;;;;1560473;74;733;-78
2024/03/06 10:15:57;;;;;;;;;;;19.80;51.70;;;;;;1550437;75;800;-78
2024/03/06 10:18:13;;;;;;;;;;;19.80;51.80;;;;;;1549444;75;732;-77
2024/03/06 10:20:28;;;;;;;;;;;19.80;51.70;;;;;;1553556;76;740;-76
2024/03/06 10:22:25;;;;;;;;;;;19.90;51.80;;;;;;1557830;75;1601;-77
2024/03/06 10:24:28;;;;;;;;;;;19.80;51.80;;;;;;1555588;75;654;-77
2024/03/06 10:26:31;;;;;;;;;;;19.90;51.80;;;;;;1563692;75;773;-76
2024/03/06 10:28:33;;;;;;;;;;;19.80;51.70;;;;;;1543161;75;1920;-77
2024/03/06 10:30:35;;;;;;;;;;;19.80;51.70;;;;;;1519093;77;656;-79
2024/03/06 10:32:37;;;;;;;;;;;19.80;51.70;;;;;;1501917;79;1120;-77
2024/03/06 10:34:40;;;;;;;;;;;19.80;51.70;;;;;;1487995;79;840;-77
2024/03/06 10:36:43;;;;;;;;;;;19.80;51.60;;;;;;1496639;79;1609;-76
2024/03/06 10:38:45;;;;;;;;;;;19.90;51.70;;;;;;1486333;78;679;-77
2024/03/06 10:40:47;;;;;;;;;;;19.80;51.60;;;;;;1504578;79;826;-77
2024/03/06 10:42:49;;;;;;;;;;;19.80;51.60;;;;;;1501465;79;1182;-76
2024/03/06 10:44:54;;;;;;;;;;;19.80;51.60;;;;;;1497762;79;795;-77
2024/03/06 10:47:02;;;;;;;;;;;19.90;51.70;;;;;;1494774;79;782;-75
2024/03/06 10:49:04;;;;;;;;;;;19.80;51.60;;;;;;1547246;75;1924;-77
2024/03/06 10:51:06;;;;;;;;;;;19.80;51.60;;;;;;1503658;77;1335;-79
2024/03/06 10:53:10;;;;;;;;;;;19.80;51.60;;;;;;1495023;79;710;-76
2024/03/06 10:55:12;;;;;;;;;;;19.90;51.70;;;;;;1492588;78;742;-76
2024/03/06 10:57:14;;;;;;;;;;;19.80;51.50;;;;;;1513791;77;801;-75
2024/03/06 10:59:16;;;;;;;;;;;19.80;51.50;;;;;;1500228;79;733;-76
2024/03/06 11:01:19;;;;;;;;;;;19.90;51.60;;;;;;1503262;78;1157;-75
2024/03/06 11:03:21;;;;;;;;;;;19.80;51.50;;;;;;1493283;79;665;-79
2024/03/06 11:05:23;;;;;;;;;;;19.80;51.50;;;;;;1490944;79;1566;-75
2024/03/06 11:07:25;;;;;;;;;;;19.80;51.50;;;;;;1487263;79;730;-77
2024/03/06 11:09:27;;;;;;;;;;;19.80;51.50;;;;;;1493758;79;1942;-76
2024/03/06 11:11:29;;;;;;;;;;;19.80;51.50;;;;;;1505924;77;1123;-77
2024/03/06 11:13:32;;;;;;;;;;;19.80;51.50;;;;;;1496132;79;713;-77
2024/03/06 11:15:34;;;;;;;;;;;19.80;51.50;;;;;;1499099;79;656;-76
2024/03/06 11:17:36;;;;;;;;;;;19.90;51.60;;;;;;1494287;79;724;-77
2024/03/06 11:19:56;;;;;;;;;;;19.90;51.50;;;;;;1496147;79;1587;-80
2024/03/06 11:21:59;;;;;;;;;;;19.90;51.60;;;;;;1493991;79;1100;-80
2024/03/06 11:24:21;;;;;;;;;;;19.80;51.50;;;;;;1504767;79;730;-78
2024/03/06 11:26:23;;;;;;;;;;;19.80;51.50;;;;;;1492207;79;1404;-77
2024/03/06 11:28:25;;;;;;;;;;;19.80;51.40;;;;;;1470024;79;763;-76
2024/03/06 11:30:27;;;;;;;;;;;19.90;51.50;;;;;;1545599;75;1953;-77
2024/03/06 11:32:29;;;;;;;;;;;19.80;51.50;;;;;;1549392;75;1339;-77
2024/03/06 11:34:31;;;;;;;;;;;19.90;51.50;;;;;;1538119;75;726;-76
2024/03/06 11:36:34;;;;;;;;;;;19.80;51.40;;;;;;1531044;75;678;-77
2024/03/06 11:38:37;;;;;;;;;;;19.80;51.40;;;;;;1532583;76;822;-74
2024/03/06 11:40:45;;;;;;;;;;;19.90;51.50;;;;;;1546163;75;683;-76
2024/03/06 11:42:49;;;;;;;;;;;19.80;51.40;;;;;;1538915;75;1193;-74
2024/03/06 11:44:59;;;;;;;;;;;19.80;51.30;;;;;;1544856;75;1922;-76
2024/03/06 11:47:01;;;;;;;;;;;19.80;51.40;;;;;;1548551;75;1566;-75
2024/03/06 11:49:05;;;;;;;;;;;19.80;51.30;;;;;;1544579;75;1930;-75
2024/03/06 11:51:06;;;;;;;;;;;19.80;51.30;;;;;;1560234;75;1077;-76
2024/03/06 11:53:08;;;;;;;;;;;19.80;51.40;;;;;;1542487;75;756;-80
2024/03/06 11:55:10;;;;;;;;;;;19.80;51.30;;;;;;1528611;75;766;-77
2024/03/06 11:57:16;;;;;;;;;;;19.80;51.30;;;;;;1527112;75;789;-75
2024/03/06 11:59:16;;;;;;;;;;;19.90;51.40;;;;;;1545507;75;1572;-75
2024/03/06 12:01:18;;;;;;;;;;;19.80;51.30;;;;;;1552180;75;1627;-76
2024/03/06 12:03:20;;;;;;;;;;;19.80;51.30;;;;;;1548989;75;749;-76
2024/03/06 12:05:23;;;;;;;;;;;19.80;51.30;;;;;;1549263;75;558;-77
2024/03/06 12:07:25;;;;;;;;;;;19.80;51.20;;;;;;1539915;75;712;-76
2024/03/06 12:09:27;;;;;;;;;;;19.90;51.30;;;;;;1551120;75;1930;-76